sensor_id;sensor_type;location;lat;lon;timestamp;temperature;humidity
39655;DHT22;25336;59.944;11.010;2023-04-03T00:01:27;-0.10;48.90
39655;DHT22;25336;59.944;11.010;2023-04-03T00:03:53;-0.40;48.70
39655;DHT22;25336;59.944;11.010;2023-04-03T00:06:19;-0.20;48.90
39655;DHT22;25336;59.944;11.010;2023-04-03T00:08:44;-0.20;49.30
39655;DHT22;25336;59.944;11.010;2023-04-03T00:11:10;-0.20;48.90
39655;DHT22;25336;59.944;11.010;2023-04-03T00:13:37;-0.20;49.00
39655;DHT22;25336;59.944;11.010;2023-04-03T00:16:03;0.00;49.10
39655;DHT22;25336;59.944;11.010;2023-04-03T00:18:29;-0.30;49.00
39655;DHT22;25336;59.944;11.010;2023-04-03T00:20:55;-0.30;49.10
39655;DHT22;25336;59.944;11.010;2023-04-03T00:23:20;-0.30;49.10
39655;DHT22;25336;59.944;11.010;2023-04-03T00:25:46;0.90;49.90
39655;DHT22;25336;59.944;11.010;2023-04-03T00:28:12;0.80;49.80
39655;DHT22;25336;59.944;11.010;2023-04-03T00:30:38;-1.30;48.90
39655;DHT22;25336;59.944;11.010;2023-04-03T00:33:03;-0.30;49.30
39655;DHT22;25336;59.944;11.010;2023-04-03T00:35:29;-0.30;49.50
39655;DHT22;25336;59.944;11.010;2023-04-03T00:37:56;-0.30;49.70
39655;DHT22;25336;59.944;11.010;2023-04-03T00:40:24;-0.30;49.70
39655;DHT22;25336;59.944;11.010;2023-04-03T00:42:58;-0.30;49.80
39655;DHT22;25336;59.944;11.010;2023-04-03T00:45:36;-0.30;50.00
39655;DHT22;25336;59.944;11.010;2023-04-03T00:48:05;-0.40;50.00
39655;DHT22;25336;59.944;11.010;2023-04-03T00:50:33;-0.40;49.80
39655;DHT22;25336;59.944;11.010;2023-04-03T00:53:00;-0.40;49.80
39655;DHT22;25336;59.944;11.010;2023-04-03T00:55:26;-0.40;49.80
39655;DHT22;25336;59.944;11.010;2023-04-03T00:57:52;-0.40;49.90
39655;DHT22;25336;59.944;11.010;2023-04-03T01:00:20;-0.40;50.20
39655;DHT22;25336;59.944;11.010;2023-04-03T01:02:47;-0.50;49.90
39655;DHT22;25336;59.944;11.010;2023-04-03T01:05:15;-0.50;49.90
39655;DHT22;25336;59.944;11.010;2023-04-03T01:07:41;-0.50;50.00
39655;DHT22;25336;59.944;11.010;2023-04-03T01:10:10;-0.50;49.90
39655;DHT22;25336;59.944;11.010;2023-04-03T01:12:38;-0.50;50.00
39655;DHT22;25336;59.944;11.010;2023-04-03T01:15:08;-0.50;49.90
39655;DHT22;25336;59.944;11.010;2023-04-03T01:17:44;-0.50;49.90
39655;DHT22;25336;59.944;11.010;2023-04-03T01:25:36;-0.50;50.10
39655;DHT22;25336;59.944;11.010;2023-04-03T01:28:04;-0.60;49.90
39655;DHT22;25336;59.944;11.010;2023-04-03T01:30:47;-0.60;50.00
39655;DHT22;25336;59.944;11.010;2023-04-03T01:33:14;-0.70;50.20
39655;DHT22;25336;59.944;11.010;2023-04-03T01:35:39;-0.70;50.10
39655;DHT22;25336;59.944;11.010;2023-04-03T01:38:05;-0.70;50.20
39655;DHT22;25336;59.944;11.010;2023-04-03T01:40:31;-0.80;50.30
39655;DHT22;25336;59.944;11.010;2023-04-03T01:42:56;-0.80;50.30
39655;DHT22;25336;59.944;11.010;2023-04-03T01:45:22;-0.90;50.40
39655;DHT22;25336;59.944;11.010;2023-04-03T01:47:47;-0.90;50.70
39655;DHT22;25336;59.944;11.010;2023-04-03T01:50:13;-0.90;50.80
39655;DHT22;25336;59.944;11.010;2023-04-03T01:52:39;-1.00;50.80
39655;DHT22;25336;59.944;11.010;2023-04-03T01:55:05;-1.00;50.90
39655;DHT22;25336;59.944;11.010;2023-04-03T01:57:31;-1.00;50.90
39655;DHT22;25336;59.944;11.010;2023-04-03T01:59:56;-0.50;51.20
39655;DHT22;25336;59.944;11.010;2023-04-03T02:02:22;-1.10;51.00
39655;DHT22;25336;59.944;11.010;2023-04-03T02:04:47;-1.10;51.10
39655;DHT22;25336;59.944;11.010;2023-04-03T02:07:13;-1.10;51.10
39655;DHT22;25336;59.944;11.010;2023-04-03T02:09:38;0.10;51.80
39655;DHT22;25336;59.944;11.010;2023-04-03T02:12:04;-1.20;51.20
39655;DHT22;25336;59.944;11.010;2023-04-03T02:14:30;-1.10;51.30
39655;DHT22;25336;59.944;11.010;2023-04-03T02:16:55;-1.20;51.40
39655;DHT22;25336;59.944;11.010;2023-04-03T02:19:21;-1.20;51.40
39655;DHT22;25336;59.944;11.010;2023-04-03T02:21:46;-1.20;51.40
39655;DHT22;25336;59.944;11.010;2023-04-03T02:24:12;-1.20;51.40
39655;DHT22;25336;59.944;11.010;2023-04-03T02:26:37;-1.20;51.40
39655;DHT22;25336;59.944;11.010;2023-04-03T02:29:03;-1.20;51.40
39655;DHT22;25336;59.944;11.010;2023-04-03T02:31:29;-0.50;51.80
39655;DHT22;25336;59.944;11.010;2023-04-03T02:33:54;-1.20;51.80
39655;DHT22;25336;59.944;11.010;2023-04-03T02:36:20;-1.30;51.40
39655;DHT22;25336;59.944;11.010;2023-04-03T02:38:46;-1.30;51.50
39655;DHT22;25336;59.944;11.010;2023-04-03T02:41:12;-1.30;51.50
39655;DHT22;25336;59.944;11.010;2023-04-03T02:43:38;-1.40;51.60
39655;DHT22;25336;59.944;11.010;2023-04-03T02:46:05;-1.40;51.60
39655;DHT22;25336;59.944;11.010;2023-04-03T02:48:31;-1.40;51.70
39655;DHT22;25336;59.944;11.010;2023-04-03T02:50:57;-1.40;51.80
39655;DHT22;25336;59.944;11.010;2023-04-03T02:53:22;-1.40;51.80
39655;DHT22;25336;59.944;11.010;2023-04-03T02:55:48;-1.50;52.00
39655;DHT22;25336;59.944;11.010;2023-04-03T02:58:14;-1.50;52.00
39655;DHT22;25336;59.944;11.010;2023-04-03T03:00:40;-1.50;52.50
39655;DHT22;25336;59.944;11.010;2023-04-03T03:03:06;-1.50;52.00
39655;DHT22;25336;59.944;11.010;2023-04-03T03:05:32;-1.50;52.00
39655;DHT22;25336;59.944;11.010;2023-04-03T03:07:57;-1.50;52.00
39655;DHT22;25336;59.944;11.010;2023-04-03T03:10:23;-1.50;52.10
39655;DHT22;25336;59.944;11.010;2023-04-03T03:12:49;-1.50;52.20
39655;DHT22;25336;59.944;11.010;2023-04-03T03:15:15;-1.50;52.20
39655;DHT22;25336;59.944;11.010;2023-04-03T03:17:42;-1.50;52.30
39655;DHT22;25336;59.944;11.010;2023-04-03T03:20:08;-2.00;52.10
39655;DHT22;25336;59.944;11.010;2023-04-03T03:22:35;-1.60;52.30
39655;DHT22;25336;59.944;11.010;2023-04-03T03:25:01;-1.60;52.30
39655;DHT22;25336;59.944;11.010;2023-04-03T03:27:27;-1.60;52.30
39655;DHT22;25336;59.944;11.010;2023-04-03T03:29:53;-1.70;52.30
39655;DHT22;25336;59.944;11.010;2023-04-03T03:32:19;-1.70;52.30
39655;DHT22;25336;59.944;11.010;2023-04-03T03:34:45;-1.60;52.50
39655;DHT22;25336;59.944;11.010;2023-04-03T03:37:11;-1.70;52.50
39655;DHT22;25336;59.944;11.010;2023-04-03T03:39:36;-1.70;52.50
39655;DHT22;25336;59.944;11.010;2023-04-03T03:42:02;-1.80;52.60
39655;DHT22;25336;59.944;11.010;2023-04-03T03:44:28;-1.80;52.60
39655;DHT22;25336;59.944;11.010;2023-04-03T03:46:55;-1.80;52.60
39655;DHT22;25336;59.944;11.010;2023-04-03T03:49:20;-1.80;52.60
39655;DHT22;25336;59.944;11.010;2023-04-03T03:51:46;-1.80;52.80
39655;DHT22;25336;59.944;11.010;2023-04-03T03:54:12;-1.80;52.80
39655;DHT22;25336;59.944;11.010;2023-04-03T03:56:37;-0.80;53.30
39655;DHT22;25336;59.944;11.010;2023-04-03T03:59:03;-1.90;52.80
39655;DHT22;25336;59.944;11.010;2023-04-03T04:01:29;-1.90;52.80
39655;DHT22;25336;59.944;11.010;2023-04-03T04:03:55;-1.90;52.90
39655;DHT22;25336;59.944;11.010;2023-04-03T04:06:21;-1.90;52.90
39655;DHT22;25336;59.944;11.010;2023-04-03T04:08:47;-1.20;53.20
39655;DHT22;25336;59.944;11.010;2023-04-03T04:11:12;-1.90;53.00
39655;DHT22;25336;59.944;11.010;2023-04-03T04:13:38;-2.00;52.90
39655;DHT22;25336;59.944;11.010;2023-04-03T04:16:04;-1.90;53.10
39655;DHT22;25336;59.944;11.010;2023-04-03T04:18:29;-1.90;53.20
39655;DHT22;25336;59.944;11.010;2023-04-03T04:20:55;-2.00;53.10
39655;DHT22;25336;59.944;11.010;2023-04-03T04:23:21;-2.00;53.20
39655;DHT22;25336;59.944;11.010;2023-04-03T04:25:47;-2.00;53.30
39655;DHT22;25336;59.944;11.010;2023-04-03T04:28:13;-2.00;53.30
39655;DHT22;25336;59.944;11.010;2023-04-03T04:30:39;-2.00;53.40
39655;DHT22;25336;59.944;11.010;2023-04-03T04:33:04;-1.90;53.50
39655;DHT22;25336;59.944;11.010;2023-04-03T04:35:30;-1.90;53.60
39655;DHT22;25336;59.944;11.010;2023-04-03T04:37:56;-1.90;53.70
39655;DHT22;25336;59.944;11.010;2023-04-03T04:40:22;-1.80;53.80
39655;DHT22;25336;59.944;11.010;2023-04-03T04:42:48;-1.80;53.80
39655;DHT22;25336;59.944;11.010;2023-04-03T04:45:13;-1.80;53.80
39655;DHT22;25336;59.944;11.010;2023-04-03T04:47:40;-1.70;53.90
39655;DHT22;25336;59.944;11.010;2023-04-03T04:50:06;-1.70;53.90
39655;DHT22;25336;59.944;11.010;2023-04-03T04:52:32;-1.70;53.90
39655;DHT22;25336;59.944;11.010;2023-04-03T04:54:57;-1.70;53.80
39655;DHT22;25336;59.944;11.010;2023-04-03T04:57:23;-1.70;53.80
39655;DHT22;25336;59.944;11.010;2023-04-03T04:59:49;-1.70;53.70
39655;DHT22;25336;59.944;11.010;2023-04-03T05:02:14;-0.80;54.10
39655;DHT22;25336;59.944;11.010;2023-04-03T05:04:40;-1.70;53.60
39655;DHT22;25336;59.944;11.010;2023-04-03T05:07:06;-1.70;53.70
39655;DHT22;25336;59.944;11.010;2023-04-03T05:09:31;-1.70;53.70
39655;DHT22;25336;59.944;11.010;2023-04-03T05:11:57;-1.80;53.80
39655;DHT22;25336;59.944;11.010;2023-04-03T05:14:22;-1.70;53.80
39655;DHT22;25336;59.944;11.010;2023-04-03T05:16:49;-1.80;53.80
39655;DHT22;25336;59.944;11.010;2023-04-03T05:19:18;-1.40;54.10
39655;DHT22;25336;59.944;11.010;2023-04-03T05:21:44;-1.70;54.00
39655;DHT22;25336;59.944;11.010;2023-04-03T05:24:09;-1.70;54.80
39655;DHT22;25336;59.944;11.010;2023-04-03T05:26:35;-1.60;54.40
39655;DHT22;25336;59.944;11.010;2023-04-03T05:29:01;-1.60;54.50
39655;DHT22;25336;59.944;11.010;2023-04-03T05:31:26;-1.50;54.50
39655;DHT22;25336;59.944;11.010;2023-04-03T05:33:54;-1.50;54.30
39655;DHT22;25336;59.944;11.010;2023-04-03T05:36:20;-1.40;54.20
39655;DHT22;25336;59.944;11.010;2023-04-03T05:38:46;-1.40;54.10
39655;DHT22;25336;59.944;11.010;2023-04-03T05:41:12;-1.30;54.30
39655;DHT22;25336;59.944;11.010;2023-04-03T05:43:38;-1.30;54.20
39655;DHT22;25336;59.944;11.010;2023-04-03T05:46:08;-0.90;54.20
39655;DHT22;25336;59.944;11.010;2023-04-03T05:48:34;-1.20;54.20
39655;DHT22;25336;59.944;11.010;2023-04-03T05:51:00;-1.20;54.00
39655;DHT22;25336;59.944;11.010;2023-04-03T05:53:28;-1.20;54.50
39655;DHT22;25336;59.944;11.010;2023-04-03T05:55:54;-1.20;54.10
39655;DHT22;25336;59.944;11.010;2023-04-03T05:58:20;-1.10;54.20
39655;DHT22;25336;59.944;11.010;2023-04-03T06:00:46;-1.10;54.10
39655;DHT22;25336;59.944;11.010;2023-04-03T06:03:11;-1.10;54.30
39655;DHT22;25336;59.944;11.010;2023-04-03T06:05:37;-1.10;54.30
39655;DHT22;25336;59.944;11.010;2023-04-03T06:08:03;-1.10;54.20
39655;DHT22;25336;59.944;11.010;2023-04-03T06:10:29;-1.10;54.30
39655;DHT22;25336;59.944;11.010;2023-04-03T06:12:55;-1.10;54.30
39655;DHT22;25336;59.944;11.010;2023-04-03T06:15:21;-1.10;54.10
39655;DHT22;25336;59.944;11.010;2023-04-03T06:17:47;-1.00;54.20
39655;DHT22;25336;59.944;11.010;2023-04-03T06:20:13;-1.00;54.00
39655;DHT22;25336;59.944;11.010;2023-04-03T06:22:39;-1.00;54.00
39655;DHT22;25336;59.944;11.010;2023-04-03T06:25:05;-1.00;54.00
39655;DHT22;25336;59.944;11.010;2023-04-03T06:27:31;-0.90;54.10
39655;DHT22;25336;59.944;11.010;2023-04-03T06:29:57;-0.70;54.20
39655;DHT22;25336;59.944;11.010;2023-04-03T06:32:23;-0.80;54.30
39655;DHT22;25336;59.944;11.010;2023-04-03T06:34:48;-0.70;54.30
39655;DHT22;25336;59.944;11.010;2023-04-03T06:37:19;-0.60;54.40
39655;DHT22;25336;59.944;11.010;2023-04-03T06:39:45;-0.50;54.30
39655;DHT22;25336;59.944;11.010;2023-04-03T06:42:11;-0.50;54.20
39655;DHT22;25336;59.944;11.010;2023-04-03T06:44:37;-0.40;54.40
39655;DHT22;25336;59.944;11.010;2023-04-03T06:47:03;-0.30;54.20
39655;DHT22;25336;59.944;11.010;2023-04-03T06:49:28;-0.30;54.10
39655;DHT22;25336;59.944;11.010;2023-04-03T06:51:55;-0.20;54.00
39655;DHT22;25336;59.944;11.010;2023-04-03T06:54:21;-0.20;54.10
39655;DHT22;25336;59.944;11.010;2023-04-03T06:56:47;-0.10;54.00
39655;DHT22;25336;59.944;11.010;2023-04-03T06:59:14;0.00;54.20
39655;DHT22;25336;59.944;11.010;2023-04-03T07:01:40;-0.30;53.80
39655;DHT22;25336;59.944;11.010;2023-04-03T07:04:07;0.10;54.60
39655;DHT22;25336;59.944;11.010;2023-04-03T07:06:33;0.20;54.00
39655;DHT22;25336;59.944;11.010;2023-04-03T07:09:00;0.20;53.80
39655;DHT22;25336;59.944;11.010;2023-04-03T07:11:26;0.30;53.60
39655;DHT22;25336;59.944;11.010;2023-04-03T07:13:52;1.30;54.30
39655;DHT22;25336;59.944;11.010;2023-04-03T07:16:19;0.50;54.50
39655;DHT22;25336;59.944;11.010;2023-04-03T07:18:45;0.50;53.90
39655;DHT22;25336;59.944;11.010;2023-04-03T07:21:11;0.60;54.00
39655;DHT22;25336;59.944;11.010;2023-04-03T07:23:38;0.70;54.00
39655;DHT22;25336;59.944;11.010;2023-04-03T07:26:04;0.80;53.90
39655;DHT22;25336;59.944;11.010;2023-04-03T07:28:29;0.90;53.90
39655;DHT22;25336;59.944;11.010;2023-04-03T07:31:04;1.00;53.60
39655;DHT22;25336;59.944;11.010;2023-04-03T07:33:31;1.10;53.80
39655;DHT22;25336;59.944;11.010;2023-04-03T07:35:57;1.20;53.50
39655;DHT22;25336;59.944;11.010;2023-04-03T07:38:23;1.30;53.40
39655;DHT22;25336;59.944;11.010;2023-04-03T07:40:50;1.40;53.40
39655;DHT22;25336;59.944;11.010;2023-04-03T07:43:17;1.50;53.50
39655;DHT22;25336;59.944;11.010;2023-04-03T07:45:44;1.60;53.40
39655;DHT22;25336;59.944;11.010;2023-04-03T07:48:11;1.70;53.40
39655;DHT22;25336;59.944;11.010;2023-04-03T07:50:39;1.80;53.30
39655;DHT22;25336;59.944;11.010;2023-04-03T07:53:04;1.90;53.30
39655;DHT22;25336;59.944;11.010;2023-04-03T07:55:31;2.00;53.40
39655;DHT22;25336;59.944;11.010;2023-04-03T07:57:57;2.10;53.50
39655;DHT22;25336;59.944;11.010;2023-04-03T08:00:23;2.20;53.70
39655;DHT22;25336;59.944;11.010;2023-04-03T08:02:50;2.30;54.00
39655;DHT22;25336;59.944;11.010;2023-04-03T08:05:18;3.00;54.50
39655;DHT22;25336;59.944;11.010;2023-04-03T08:07:44;2.60;54.60
39655;DHT22;25336;59.944;11.010;2023-04-03T08:10:10;2.70;54.90
39655;DHT22;25336;59.944;11.010;2023-04-03T08:12:36;2.80;54.90
39655;DHT22;25336;59.944;11.010;2023-04-03T08:15:03;3.00;55.60
39655;DHT22;25336;59.944;11.010;2023-04-03T08:17:29;3.10;55.80
39655;DHT22;25336;59.944;11.010;2023-04-03T08:19:54;3.20;55.80
39655;DHT22;25336;59.944;11.010;2023-04-03T08:22:20;3.30;55.80
39655;DHT22;25336;59.944;11.010;2023-04-03T08:24:46;3.50;55.90
39655;DHT22;25336;59.944;11.010;2023-04-03T08:27:12;3.60;55.50
39655;DHT22;25336;59.944;11.010;2023-04-03T08:29:37;3.70;55.70
39655;DHT22;25336;59.944;11.010;2023-04-03T08:32:04;3.80;55.80
39655;DHT22;25336;59.944;11.010;2023-04-03T08:34:30;3.90;55.60
39655;DHT22;25336;59.944;11.010;2023-04-03T08:36:56;5.20;56.40
39655;DHT22;25336;59.944;11.010;2023-04-03T08:39:21;4.10;55.80
39655;DHT22;25336;59.944;11.010;2023-04-03T08:41:47;4.20;56.00
39655;DHT22;25336;59.944;11.010;2023-04-03T08:44:59;4.30;56.30
39655;DHT22;25336;59.944;11.010;2023-04-03T08:47:36;4.50;56.50
39655;DHT22;25336;59.944;11.010;2023-04-03T08:50:07;4.60;55.80
39655;DHT22;25336;59.944;11.010;2023-04-03T08:52:39;4.70;55.50
39655;DHT22;25336;59.944;11.010;2023-04-03T08:55:22;4.80;55.50
39655;DHT22;25336;59.944;11.010;2023-04-03T08:57:51;4.90;55.70
39655;DHT22;25336;59.944;11.010;2023-04-03T09:00:25;5.00;55.50
39655;DHT22;25336;59.944;11.010;2023-04-03T09:02:54;5.10;55.30
39655;DHT22;25336;59.944;11.010;2023-04-03T09:08:18;5.30;55.40
39655;DHT22;25336;59.944;11.010;2023-04-03T09:10:46;5.30;55.10
39655;DHT22;25336;59.944;11.010;2023-04-03T09:15:50;5.50;55.20
39655;DHT22;25336;59.944;11.010;2023-04-03T09:18:30;5.60;55.00
39655;DHT22;25336;59.944;11.010;2023-04-03T09:23:52;5.80;55.10
39655;DHT22;25336;59.944;11.010;2023-04-03T09:26:24;5.80;54.90
39655;DHT22;25336;59.944;11.010;2023-04-03T09:28:54;5.90;54.60
39655;DHT22;25336;59.944;11.010;2023-04-03T09:31:31;6.00;54.30
39655;DHT22;25336;59.944;11.010;2023-04-03T09:34:03;6.00;54.20
39655;DHT22;25336;59.944;11.010;2023-04-03T09:36:42;6.20;54.30
39655;DHT22;25336;59.944;11.010;2023-04-03T09:39:23;6.30;54.50
39655;DHT22;25336;59.944;11.010;2023-04-03T09:44:24;6.40;54.00
39655;DHT22;25336;59.944;11.010;2023-04-03T09:46:52;6.50;53.70
39655;DHT22;25336;59.944;11.010;2023-04-03T09:49:18;6.50;53.60
39655;DHT22;25336;59.944;11.010;2023-04-03T09:51:45;6.60;53.40
39655;DHT22;25336;59.944;11.010;2023-04-03T09:54:30;6.70;53.20
39655;DHT22;25336;59.944;11.010;2023-04-03T09:57:04;6.70;53.20
39655;DHT22;25336;59.944;11.010;2023-04-03T09:59:31;6.80;52.90
39655;DHT22;25336;59.944;11.010;2023-04-03T10:02:00;6.80;52.80
39655;DHT22;25336;59.944;11.010;2023-04-03T10:04:38;6.90;52.70
39655;DHT22;25336;59.944;11.010;2023-04-03T10:07:37;6.90;52.60
39655;DHT22;25336;59.944;11.010;2023-04-03T10:12:43;7.10;52.50
39655;DHT22;25336;59.944;11.010;2023-04-03T10:15:14;7.10;52.30
39655;DHT22;25336;59.944;11.010;2023-04-03T10:20:27;7.20;52.10
39655;DHT22;25336;59.944;11.010;2023-04-03T10:23:18;7.40;52.10
39655;DHT22;25336;59.944;11.010;2023-04-03T10:25:53;7.40;52.10
39655;DHT22;25336;59.944;11.010;2023-04-03T10:28:27;7.40;51.80
39655;DHT22;25336;59.944;11.010;2023-04-03T10:36:38;7.60;51.40
39655;DHT22;25336;59.944;11.010;2023-04-03T10:42:15;7.70;51.20
39655;DHT22;25336;59.944;11.010;2023-04-03T10:50:26;7.90;51.20
39655;DHT22;25336;59.944;11.010;2023-04-03T10:58:38;8.10;50.70
39655;DHT22;25336;59.944;11.010;2023-04-03T11:01:11;8.20;50.60
39655;DHT22;25336;59.944;11.010;2023-04-03T11:03:42;8.20;50.50
39655;DHT22;25336;59.944;11.010;2023-04-03T11:06:11;8.30;50.50
39655;DHT22;25336;59.944;11.010;2023-04-03T11:08:53;8.40;50.40
39655;DHT22;25336;59.944;11.010;2023-04-03T11:11:41;8.40;50.20
39655;DHT22;25336;59.944;11.010;2023-04-03T11:20:01;8.70;49.80
39655;DHT22;25336;59.944;11.010;2023-04-03T11:22:35;8.70;49.60
39655;DHT22;25336;59.944;11.010;2023-04-03T11:27:33;8.90;49.60
39655;DHT22;25336;59.944;11.010;2023-04-03T11:30:06;10.20;50.00
39655;DHT22;25336;59.944;11.010;2023-04-03T11:33:09;9.20;49.40
39655;DHT22;25336;59.944;11.010;2023-04-03T11:35:30;9.20;48.80
39655;DHT22;25336;59.944;11.010;2023-04-03T11:37:57;9.30;48.90
39655;DHT22;25336;59.944;11.010;2023-04-03T11:40:33;9.40;48.60
39655;DHT22;25336;59.944;11.010;2023-04-03T11:43:07;9.50;48.60
39655;DHT22;25336;59.944;11.010;2023-04-03T11:45:53;9.60;48.70
39655;DHT22;25336;59.944;11.010;2023-04-03T11:51:00;9.80;48.20
39655;DHT22;25336;59.944;11.010;2023-04-03T11:53:37;9.80;48.00
39655;DHT22;25336;59.944;11.010;2023-04-03T12:01:51;10.10;47.30
39655;DHT22;25336;59.944;11.010;2023-04-03T12:04:19;11.10;47.70
39655;DHT22;25336;59.944;11.010;2023-04-03T12:12:35;10.40;46.70
39655;DHT22;25336;59.944;11.010;2023-04-03T12:16:01;10.50;46.70
39655;DHT22;25336;59.944;11.010;2023-04-03T12:21:13;10.70;46.20
39655;DHT22;25336;59.944;11.010;2023-04-03T12:26:28;10.70;45.20
39655;DHT22;25336;59.944;11.010;2023-04-03T12:28:55;10.70;44.90
39655;DHT22;25336;59.944;11.010;2023-04-03T12:31:25;10.70;44.40
39655;DHT22;25336;59.944;11.010;2023-04-03T12:39:41;10.60;43.50
39655;DHT22;25336;59.944;11.010;2023-04-03T12:45:19;10.60;43.60
39655;DHT22;25336;59.944;11.010;2023-04-03T12:47:45;10.70;43.50
39655;DHT22;25336;59.944;11.010;2023-04-03T12:50:29;11.40;44.00
39655;DHT22;25336;59.944;11.010;2023-04-03T12:53:35;10.60;43.30
39655;DHT22;25336;59.944;11.010;2023-04-03T12:56:26;10.60;43.30
39655;DHT22;25336;59.944;11.010;2023-04-03T12:58:54;10.60;43.40
39655;DHT22;25336;59.944;11.010;2023-04-03T13:01:24;11.50;44.00
39655;DHT22;25336;59.944;11.010;2023-04-03T13:03:56;10.60;43.40
39655;DHT22;25336;59.944;11.010;2023-04-03T13:06:27;10.60;43.20
39655;DHT22;25336;59.944;11.010;2023-04-03T13:08:58;10.60;42.70
39655;DHT22;25336;59.944;11.010;2023-04-03T13:11:27;10.70;42.90
39655;DHT22;25336;59.944;11.010;2023-04-03T13:14:15;11.90;43.50
39655;DHT22;25336;59.944;11.010;2023-04-03T13:16:40;10.70;42.60
39655;DHT22;25336;59.944;11.010;2023-04-03T13:19:16;10.70;42.60
39655;DHT22;25336;59.944;11.010;2023-04-03T13:21:42;10.70;42.40
39655;DHT22;25336;59.944;11.010;2023-04-03T13:24:09;10.80;42.50
39655;DHT22;25336;59.944;11.010;2023-04-03T13:26:35;10.80;42.20
39655;DHT22;25336;59.944;11.010;2023-04-03T13:29:05;10.80;42.00
39655;DHT22;25336;59.944;11.010;2023-04-03T13:31:34;10.80;41.40
39655;DHT22;25336;59.944;11.010;2023-04-03T13:34:12;10.80;41.50
39655;DHT22;25336;59.944;11.010;2023-04-03T13:41:45;10.70;41.70
39655;DHT22;25336;59.944;11.010;2023-04-03T13:46:54;10.70;41.00
39655;DHT22;25336;59.944;11.010;2023-04-03T13:51:53;10.80;41.30
39655;DHT22;25336;59.944;11.010;2023-04-03T13:54:39;10.80;41.40
39655;DHT22;25336;59.944;11.010;2023-04-03T13:57:13;10.90;41.20
39655;DHT22;25336;59.944;11.010;2023-04-03T13:59:39;10.90;41.40
39655;DHT22;25336;59.944;11.010;2023-04-03T14:02:28;10.90;41.20
39655;DHT22;25336;59.944;11.010;2023-04-03T14:04:57;10.90;41.40
39655;DHT22;25336;59.944;11.010;2023-04-03T14:07:24;10.90;41.40
39655;DHT22;25336;59.944;11.010;2023-04-03T14:09:50;10.90;41.40
39655;DHT22;25336;59.944;11.010;2023-04-03T14:12:52;10.90;41.50
39655;DHT22;25336;59.944;11.010;2023-04-03T14:15:31;11.00;41.70
39655;DHT22;25336;59.944;11.010;2023-04-03T14:17:58;11.10;41.50
39655;DHT22;25336;59.944;11.010;2023-04-03T14:20:25;11.10;41.10
39655;DHT22;25336;59.944;11.010;2023-04-03T14:22:52;11.20;41.20
39655;DHT22;25336;59.944;11.010;2023-04-03T14:25:20;11.20;41.00
39655;DHT22;25336;59.944;11.010;2023-04-03T14:27:49;11.20;40.90
39655;DHT22;25336;59.944;11.010;2023-04-03T14:30:26;11.20;40.80
39655;DHT22;25336;59.944;11.010;2023-04-03T14:32:52;11.30;40.90
39655;DHT22;25336;59.944;11.010;2023-04-03T14:35:18;11.30;40.30
39655;DHT22;25336;59.944;11.010;2023-04-03T14:37:44;11.40;39.80
39655;DHT22;25336;59.944;11.010;2023-04-03T14:40:20;11.40;39.60
39655;DHT22;25336;59.944;11.010;2023-04-03T14:42:46;11.40;39.10
39655;DHT22;25336;59.944;11.010;2023-04-03T14:45:15;12.20;39.50
39655;DHT22;25336;59.944;11.010;2023-04-03T14:47:50;11.40;38.20
39655;DHT22;25336;59.944;11.010;2023-04-03T14:50:20;11.40;38.20
39655;DHT22;25336;59.944;11.010;2023-04-03T14:52:51;11.30;38.50
39655;DHT22;25336;59.944;11.010;2023-04-03T14:55:20;11.30;39.20
39655;DHT22;25336;59.944;11.010;2023-04-03T14:57:46;11.20;39.60
39655;DHT22;25336;59.944;11.010;2023-04-03T15:00:20;11.20;39.80
39655;DHT22;25336;59.944;11.010;2023-04-03T15:02:47;11.20;39.70
39655;DHT22;25336;59.944;11.010;2023-04-03T15:05:13;11.20;39.80
39655;DHT22;25336;59.944;11.010;2023-04-03T15:08:13;11.90;40.10
39655;DHT22;25336;59.944;11.010;2023-04-03T15:10:42;11.20;39.70
39655;DHT22;25336;59.944;11.010;2023-04-03T15:13:08;11.20;40.00
39655;DHT22;25336;59.944;11.010;2023-04-03T15:15:36;11.90;40.30
39655;DHT22;25336;59.944;11.010;2023-04-03T15:18:02;11.10;40.00
39655;DHT22;25336;59.944;11.010;2023-04-03T15:20:29;11.10;40.30
39655;DHT22;25336;59.944;11.010;2023-04-03T15:22:57;11.10;40.40
39655;DHT22;25336;59.944;11.010;2023-04-03T15:25:26;11.10;40.30
39655;DHT22;25336;59.944;11.010;2023-04-03T15:27:55;11.00;40.30
39655;DHT22;25336;59.944;11.010;2023-04-03T15:30:21;11.10;40.40
39655;DHT22;25336;59.944;11.010;2023-04-03T15:32:47;11.10;40.40
39655;DHT22;25336;59.944;11.010;2023-04-03T15:35:14;11.00;40.40
39655;DHT22;25336;59.944;11.010;2023-04-03T15:37:39;10.20;40.10
39655;DHT22;25336;59.944;11.010;2023-04-03T15:40:06;11.00;40.60
39655;DHT22;25336;59.944;11.010;2023-04-03T15:42:32;11.00;40.80
39655;DHT22;25336;59.944;11.010;2023-04-03T15:44:57;10.90;40.70
39655;DHT22;25336;59.944;11.010;2023-04-03T15:47:25;10.90;40.70
39655;DHT22;25336;59.944;11.010;2023-04-03T15:49:50;10.80;40.70
39655;DHT22;25336;59.944;11.010;2023-04-03T15:52:16;10.80;40.90
39655;DHT22;25336;59.944;11.010;2023-04-03T15:54:42;10.80;41.00
39655;DHT22;25336;59.944;11.010;2023-04-03T15:57:07;10.70;41.00
39655;DHT22;25336;59.944;11.010;2023-04-03T15:59:33;10.70;41.10
39655;DHT22;25336;59.944;11.010;2023-04-03T16:01:59;10.70;41.20
39655;DHT22;25336;59.944;11.010;2023-04-03T16:04:27;10.60;41.30
39655;DHT22;25336;59.944;11.010;2023-04-03T16:06:52;10.60;41.40
39655;DHT22;25336;59.944;11.010;2023-04-03T16:09:18;10.50;41.60
39655;DHT22;25336;59.944;11.010;2023-04-03T16:11:44;10.50;41.90
39655;DHT22;25336;59.944;11.010;2023-04-03T16:14:10;10.50;42.00
39655;DHT22;25336;59.944;11.010;2023-04-03T16:16:36;10.50;42.20
39655;DHT22;25336;59.944;11.010;2023-04-03T16:19:03;10.50;42.40
39655;DHT22;25336;59.944;11.010;2023-04-03T16:21:29;10.50;42.60
39655;DHT22;25336;59.944;11.010;2023-04-03T16:23:59;10.50;42.70
39655;DHT22;25336;59.944;11.010;2023-04-03T16:26:26;10.50;42.80
39655;DHT22;25336;59.944;11.010;2023-04-03T16:28:52;10.60;42.90
39655;DHT22;25336;59.944;11.010;2023-04-03T16:31:19;10.60;42.90
39655;DHT22;25336;59.944;11.010;2023-04-03T16:33:45;10.60;42.90
39655;DHT22;25336;59.944;11.010;2023-04-03T16:36:10;11.50;43.30
39655;DHT22;25336;59.944;11.010;2023-04-03T16:38:36;11.40;43.10
39655;DHT22;25336;59.944;11.010;2023-04-03T16:41:01;10.70;42.70
39655;DHT22;25336;59.944;11.010;2023-04-03T16:43:30;10.70;42.70
39655;DHT22;25336;59.944;11.010;2023-04-03T16:45:56;11.00;42.80
39655;DHT22;25336;59.944;11.010;2023-04-03T16:48:22;11.60;43.10
39655;DHT22;25336;59.944;11.010;2023-04-03T16:50:48;10.60;42.60
39655;DHT22;25336;59.944;11.010;2023-04-03T16:53:14;10.60;42.70
39655;DHT22;25336;59.944;11.010;2023-04-03T16:55:40;10.70;42.70
39655;DHT22;25336;59.944;11.010;2023-04-03T16:58:06;10.50;42.50